sensor_id;sensor_type;location;lat;lon;timestamp;pressure;altitude;pressure_sealevel;temperature;humidity
55077;BME280;40971;44.702;11.030;2023-03-22T00:03:42;101444.41;;;8.89;84.45
55077;BME280;40971;44.702;11.030;2023-03-22T00:13:47;101452.88;;;7.90;85.37
55077;BME280;40971;44.702;11.030;2023-03-22T00:23:50;101440.84;;;8.29;87.24
55077;BME280;40971;44.702;11.030;2023-03-22T00:33:52;101440.66;;;8.21;87.37
55077;BME280;40971;44.702;11.030;2023-03-22T00:43:54;101426.47;;;8.44;88.44
55077;BME280;40971;44.702;11.030;2023-03-22T00:53:59;101420.88;;;8.28;86.22
55077;BME280;40971;44.702;11.030;2023-03-22T01:04:04;101416.63;;;8.06;88.07
55077;BME280;40971;44.702;11.030;2023-03-22T01:14:07;101418.13;;;8.30;87.81
55077;BME280;40971;44.702;11.030;2023-03-22T01:24:11;101405.59;;;8.33;86.27
55077;BME280;40971;44.702;11.030;2023-03-22T01:34:14;101390.72;;;8.13;86.73
55077;BME280;40971;44.702;11.030;2023-03-22T01:44:19;101397.66;;;8.23;86.38
55077;BME280;40971;44.702;11.030;2023-03-22T01:54:37;101403.66;;;7.63;86.21
55077;BME280;40971;44.702;11.030;2023-03-22T02:04:46;101401.50;;;7.89;86.29
55077;BME280;40971;44.702;11.030;2023-03-22T02:15:20;101400.16;;;7.95;86.37
55077;BME280;40971;44.702;11.030;2023-03-22T02:46:10;101395.03;;;7.93;88.12
55077;BME280;40971;44.702;11.030;2023-03-22T02:56:24;101405.75;;;8.11;86.96
55077;BME280;40971;44.702;11.030;2023-03-22T03:06:31;101406.06;;;7.97;86.65
55077;BME280;40971;44.702;11.030;2023-03-22T03:16:35;101406.25;;;8.05;86.66
55077;BME280;40971;44.702;11.030;2023-03-22T03:26:59;101412.59;;;7.82;87.51
55077;BME280;40971;44.702;11.030;2023-03-22T03:37:06;101417.63;;;7.94;87.57
55077;BME280;40971;44.702;11.030;2023-03-22T03:47:11;101427.97;;;7.96;86.90
55077;BME280;40971;44.702;11.030;2023-03-22T03:57:14;101437.22;;;7.58;87.54
55077;BME280;40971;44.702;11.030;2023-03-22T04:07:18;101436.09;;;7.72;88.03
55077;BME280;40971;44.702;11.030;2023-03-22T04:17:20;101440.44;;;7.83;87.99
55077;BME280;40971;44.702;11.030;2023-03-22T04:27:23;101449.13;;;7.51;87.89
55077;BME280;40971;44.702;11.030;2023-03-22T04:37:26;101444.94;;;7.39;90.05
55077;BME280;40971;44.702;11.030;2023-03-22T04:47:28;101450.66;;;7.54;89.10
55077;BME280;40971;44.702;11.030;2023-03-22T04:57:31;101443.47;;;7.46;89.88
55077;BME280;40971;44.702;11.030;2023-03-22T05:07:36;101443.34;;;7.69;89.90
55077;BME280;40971;44.702;11.030;2023-03-22T05:17:39;101449.84;;;7.22;88.83
55077;BME280;40971;44.702;11.030;2023-03-22T05:27:42;101461.56;;;6.95;88.15
55077;BME280;40971;44.702;11.030;2023-03-22T05:37:44;101456.31;;;7.07;89.79
55077;BME280;40971;44.702;11.030;2023-03-22T05:47:48;101463.34;;;6.95;89.85
55077;BME280;40971;44.702;11.030;2023-03-22T05:57:51;101469.75;;;6.91;89.74
55077;BME280;40971;44.702;11.030;2023-03-22T06:07:56;101464.13;;;7.07;89.91
55077;BME280;40971;44.702;11.030;2023-03-22T06:17:59;101478.47;;;7.23;89.34
55077;BME280;40971;44.702;11.030;2023-03-22T06:28:02;101483.25;;;7.61;88.10
55077;BME280;40971;44.702;11.030;2023-03-22T06:38:05;101492.16;;;8.11;87.37
55077;BME280;40971;44.702;11.030;2023-03-22T06:48:07;101501.84;;;8.61;86.66
55077;BME280;40971;44.702;11.030;2023-03-22T06:58:12;101503.00;;;9.18;86.65
55077;BME280;40971;44.702;11.030;2023-03-22T07:08:17;101509.00;;;10.16;85.54
55077;BME280;40971;44.702;11.030;2023-03-22T07:18:21;101499.97;;;11.01;81.27
55077;BME280;40971;44.702;11.030;2023-03-22T07:28:24;101508.81;;;11.90;77.26
55077;BME280;40971;44.702;11.030;2023-03-22T07:38:29;101511.00;;;12.46;75.26
55077;BME280;40971;44.702;11.030;2023-03-22T07:48:32;101519.78;;;13.14;72.71
55077;BME280;40971;44.702;11.030;2023-03-22T07:58:35;101528.50;;;14.05;69.99
55077;BME280;40971;44.702;11.030;2023-03-22T08:08:37;101523.31;;;14.68;68.08
55077;BME280;40971;44.702;11.030;2023-03-22T08:18:40;101517.56;;;15.03;66.92
55077;BME280;40971;44.702;11.030;2023-03-22T08:28:42;101535.88;;;16.35;60.36
55077;BME280;40971;44.702;11.030;2023-03-22T08:38:43;101533.56;;;15.94;62.11
55077;BME280;40971;44.702;11.030;2023-03-22T08:48:48;101535.22;;;16.70;60.76
55077;BME280;40971;44.702;11.030;2023-03-22T08:58:53;101538.97;;;17.05;61.45
55077;BME280;40971;44.702;11.030;2023-03-22T09:08:56;101547.59;;;17.99;59.08
55077;BME280;40971;44.702;11.030;2023-03-22T09:18:59;101549.13;;;18.09;55.61
55077;BME280;40971;44.702;11.030;2023-03-22T09:29:03;101542.59;;;18.11;56.79
55077;BME280;40971;44.702;11.030;2023-03-22T09:39:05;101546.31;;;18.17;55.84
55077;BME280;40971;44.702;11.030;2023-03-22T09:49:17;101534.34;;;18.55;57.52
55077;BME280;40971;44.702;11.030;2023-03-22T09:59:30;101520.31;;;19.15;52.08
55077;BME280;40971;44.702;11.030;2023-03-22T10:09:48;101517.31;;;18.90;53.98
55077;BME280;40971;44.702;11.030;2023-03-22T10:20:04;101524.06;;;19.34;53.43
55077;BME280;40971;44.702;11.030;2023-03-22T10:30:22;101511.41;;;19.42;53.19
55077;BME280;40971;44.702;11.030;2023-03-22T10:40:29;101513.75;;;19.24;53.20
55077;BME280;40971;44.702;11.030;2023-03-22T10:50:35;101503.03;;;19.04;49.95
55077;BME280;40971;44.702;11.030;2023-03-22T11:00:43;101500.97;;;19.00;50.59
55077;BME280;40971;44.702;11.030;2023-03-22T11:10:49;101491.75;;;20.02;51.26
55077;BME280;40971;44.702;11.030;2023-03-22T11:20:57;101474.41;;;20.64;52.14
55077;BME280;40971;44.702;11.030;2023-03-22T11:31:11;101476.00;;;20.78;49.18
55077;BME280;40971;44.702;11.030;2023-03-22T11:41:22;101474.75;;;20.87;49.45
55077;BME280;40971;44.702;11.030;2023-03-22T11:51:37;101452.34;;;21.32;46.60
55077;BME280;40971;44.702;11.030;2023-03-22T12:01:56;101438.69;;;21.40;45.81
55077;BME280;40971;44.702;11.030;2023-03-22T12:12:02;101428.97;;;21.21;43.12
55077;BME280;40971;44.702;11.030;2023-03-22T12:22:14;101419.00;;;21.28;42.34
55077;BME280;40971;44.702;11.030;2023-03-22T12:32:25;101408.44;;;21.65;40.99
55077;BME280;40971;44.702;11.030;2023-03-22T12:42:40;101388.19;;;22.18;38.61
55077;BME280;40971;44.702;11.030;2023-03-22T12:52:49;101385.66;;;22.23;38.69
55077;BME280;40971;44.702;11.030;2023-03-22T13:02:57;101374.19;;;22.52;37.00
55077;BME280;40971;44.702;11.030;2023-03-22T13:13:08;101364.19;;;22.59;36.44
55077;BME280;40971;44.702;11.030;2023-03-22T13:23:11;101372.69;;;22.56;35.72
55077;BME280;40971;44.702;11.030;2023-03-22T13:33:28;101357.22;;;22.40;35.30
55077;BME280;40971;44.702;11.030;2023-03-22T14:04:28;101321.69;;;22.63;39.12
55077;BME280;40971;44.702;11.030;2023-03-22T14:14:37;101309.22;;;22.98;38.76
55077;BME280;40971;44.702;11.030;2023-03-22T14:24:40;101292.19;;;22.93;37.57
55077;BME280;40971;44.702;11.030;2023-03-22T14:34:47;101288.06;;;22.79;36.72
55077;BME280;40971;44.702;11.030;2023-03-22T14:45:04;101272.44;;;22.16;37.63
55077;BME280;40971;44.702;11.030;2023-03-22T14:55:16;101251.31;;;22.38;36.19
55077;BME280;40971;44.702;11.030;2023-03-22T15:05:21;101241.06;;;22.35;36.48
55077;BME280;40971;44.702;11.030;2023-03-22T15:15:35;101241.47;;;21.84;37.33
55077;BME280;40971;44.702;11.030;2023-03-22T15:25:37;101232.72;;;21.77;37.82
55077;BME280;40971;44.702;11.030;2023-03-22T15:35:41;101237.03;;;21.96;39.65
55077;BME280;40971;44.702;11.030;2023-03-22T15:56:25;101219.97;;;21.36;39.44
55077;BME280;40971;44.702;11.030;2023-03-22T16:06:28;101211.81;;;21.06;42.80
55077;BME280;40971;44.702;11.030;2023-03-22T16:16:30;101225.72;;;20.65;42.93
55077;BME280;40971;44.702;11.030;2023-03-22T16:26:34;101224.03;;;20.40;41.65
55077;BME280;40971;44.702;11.030;2023-03-22T16:36:36;101220.22;;;20.16;41.64
55077;BME280;40971;44.702;11.030;2023-03-22T16:46:40;101228.63;;;19.75;41.59
55077;BME280;40971;44.702;11.030;2023-03-22T16:56:41;101229.75;;;19.28;42.68
55077;BME280;40971;44.702;11.030;2023-03-22T17:06:42;101232.00;;;19.18;44.33
55077;BME280;40971;44.702;11.030;2023-03-22T17:16:43;101239.38;;;18.70;47.00
55077;BME280;40971;44.702;11.030;2023-03-22T17:26:45;101259.69;;;18.11;48.68
55077;BME280;40971;44.702;11.030;2023-03-22T17:36:46;101254.63;;;17.81;50.25
55077;BME280;40971;44.702;11.030;2023-03-22T17:46:48;101262.63;;;17.26;51.93
55077;BME280;40971;44.702;11.030;2023-03-22T17:56:53;101268.63;;;16.85;53.00
55077;BME280;40971;44.702;11.030;2023-03-22T18:06:55;101275.84;;;16.35;56.54
55077;BME280;40971;44.702;11.030;2023-03-22T18:16:58;101297.19;;;16.12;53.57
55077;BME280;40971;44.702;11.030;2023-03-22T18:27:02;101296.59;;;15.43;58.56
55077;BME280;40971;44.702;11.030;2023-03-22T18:37:04;101312.75;;;14.88;59.39
55077;BME280;40971;44.702;11.030;2023-03-22T18:47:09;101315.59;;;14.87;58.13
55077;BME280;40971;44.702;11.030;2023-03-22T18:57:16;101332.31;;;14.87;58.47
55077;BME280;40971;44.702;11.030;2023-03-22T19:07:19;101317.34;;;14.41;61.24
55077;BME280;40971;44.702;11.030;2023-03-22T19:17:21;101313.72;;;14.73;58.22
55077;BME280;40971;44.702;11.030;2023-03-22T19:27:25;101305.22;;;14.77;57.61
55077;BME280;40971;44.702;11.030;2023-03-22T19:37:30;101305.97;;;14.71;57.54
55077;BME280;40971;44.702;11.030;2023-03-22T19:47:32;101323.53;;;14.33;59.46
55077;BME280;40971;44.702;11.030;2023-03-22T19:57:33;101339.84;;;13.98;62.24
55077;BME280;40971;44.702;11.030;2023-03-22T20:07:36;101350.63;;;13.40;63.29
55077;BME280;40971;44.702;11.030;2023-03-22T20:17:40;101358.91;;;13.29;64.26
55077;BME280;40971;44.702;11.030;2023-03-22T20:27:42;101360.09;;;12.60;65.79
55077;BME280;40971;44.702;11.030;2023-03-22T20:37:47;101367.63;;;12.47;66.47
55077;BME280;40971;44.702;11.030;2023-03-22T20:47:50;101369.34;;;12.22;67.76
55077;BME280;40971;44.702;11.030;2023-03-22T20:57:52;101363.09;;;11.98;68.93
55077;BME280;40971;44.702;11.030;2023-03-22T21:07:57;101392.16;;;11.45;71.56
55077;BME280;40971;44.702;11.030;2023-03-22T21:18:00;101385.44;;;11.68;71.81
55077;BME280;40971;44.702;11.030;2023-03-22T21:28:02;101391.44;;;11.52;72.16
55077;BME280;40971;44.702;11.030;2023-03-22T21:38:07;101388.06;;;11.25;73.97
55077;BME280;40971;44.702;11.030;2023-03-22T21:48:10;101402.03;;;11.07;74.14
55077;BME280;40971;44.702;11.030;2023-03-22T21:58:15;101396.91;;;10.34;76.28
55077;BME280;40971;44.702;11.030;2023-03-22T22:08:19;101395.84;;;10.27;77.15
55077;BME280;40971;44.702;11.030;2023-03-22T22:18:23;101393.78;;;10.11;77.62
55077;BME280;40971;44.702;11.030;2023-03-22T22:28:26;101405.03;;;9.94;78.79
55077;BME280;40971;44.702;11.030;2023-03-22T22:38:28;101407.06;;;9.34;79.82
55077;BME280;40971;44.702;11.030;2023-03-22T22:48:30;101408.44;;;9.48;79.06
55077;BME280;40971;44.702;11.030;2023-03-22T22:58:33;101402.06;;;9.22;78.44
55077;BME280;40971;44.702;11.030;2023-03-22T23:08:35;101393.63;;;9.66;79.31
55077;BME280;40971;44.702;11.030;2023-03-22T23:18:45;101381.75;;;9.53;78.79
55077;BME280;40971;44.702;11.030;2023-03-22T23:28:55;101386.56;;;9.76;80.18
55077;BME280;40971;44.702;11.030;2023-03-22T23:39:02;101380.81;;;9.06;82.68
55077;BME280;40971;44.702;11.030;2023-03-22T23:49:05;101389.34;;;9.08;83.56
55077;BME280;40971;44.702;11.030;2023-03-22T23:59:09;101384.84;;;8.60;82.40
